createdAt,value
2018-03-21T00:00:10.380Z,11.23
2018-03-21T00:02:44.153Z,7.90
2018-03-21T00:05:18.670Z,8.23
2018-03-21T00:07:52.621Z,10.13
2018-03-21T00:13:07.095Z,10.27
2018-03-21T00:15:40.911Z,15.03
2018-03-21T00:18:15.053Z,13.73
2018-03-21T00:20:48.887Z,14.13
2018-03-21T00:23:22.723Z,10.87
2018-03-21T00:25:56.363Z,9.70
2018-03-21T00:28:30.050Z,8.90
2018-03-21T00:31:05.070Z,15.53
2018-03-21T00:33:39.309Z,11.80
2018-03-21T00:36:13.850Z,6.40
2018-03-21T00:38:47.737Z,11.07
2018-03-21T00:41:22.270Z,11.63
2018-03-21T00:43:56.189Z,11.00
2018-03-21T00:46:30.505Z,11.23
2018-03-21T00:49:04.639Z,17.80
2018-03-21T00:51:38.460Z,8.80
2018-03-21T00:54:12.270Z,8.77
2018-03-21T00:56:45.994Z,12.40
2018-03-21T00:59:19.797Z,14.27
2018-03-21T01:01:53.552Z,9.00
2018-03-21T01:04:28.284Z,10.17
2018-03-21T01:07:02.429Z,15.60
2018-03-21T01:09:36.112Z,13.07
2018-03-21T01:12:09.813Z,12.43
2018-03-21T01:14:43.567Z,7.77
2018-03-21T01:17:17.438Z,6.83
2018-03-21T01:19:51.874Z,8.80
2018-03-21T01:22:26.653Z,9.30
2018-03-21T01:25:00.516Z,8.43
2018-03-21T01:27:34.607Z,8.10
2018-03-21T01:30:08.484Z,8.33
2018-03-21T01:32:42.281Z,8.33
2018-03-21T01:35:16.925Z,9.90
2018-03-21T01:37:50.774Z,12.33
2018-03-21T01:40:24.552Z,9.13
2018-03-21T01:42:58.250Z,7.33
2018-03-21T01:45:32.012Z,7.23
2018-03-21T01:48:05.609Z,16.63
2018-03-21T01:50:39.474Z,9.47
2018-03-21T01:53:13.137Z,7.10
2018-03-21T01:55:47.700Z,9.87
2018-03-21T01:58:21.331Z,11.83
2018-03-21T02:00:55.036Z,12.73
2018-03-21T02:03:29.681Z,8.63
2018-03-21T02:06:03.686Z,11.80
2018-03-21T02:08:37.391Z,7.97
2018-03-21T02:11:11.164Z,10.60
2018-03-21T02:13:44.976Z,13.23
2018-03-21T02:16:18.837Z,4.90
2018-03-21T02:18:52.589Z,6.80
2018-03-21T02:21:27.080Z,8.37
2018-03-21T02:24:00.977Z,4.83
2018-03-21T02:26:34.815Z,7.37
2018-03-21T02:29:08.541Z,10.77
2018-03-21T02:31:42.155Z,8.10
2018-03-21T02:34:16.698Z,9.50
2018-03-21T02:36:50.565Z,11.93
2018-03-21T02:39:25.253Z,9.87
2018-03-21T02:41:59.265Z,10.63
2018-03-21T02:44:34.068Z,7.67
2018-03-21T02:47:08.901Z,7.43
2018-03-21T02:49:42.793Z,8.63
2018-03-21T02:52:16.450Z,9.33
2018-03-21T02:54:50.106Z,6.93
2018-03-21T02:57:23.866Z,10.60
2018-03-21T02:59:57.596Z,9.13
2018-03-21T03:02:31.427Z,9.33
2018-03-21T03:05:05.149Z,8.23
2018-03-21T03:07:39.615Z,14.73
2018-03-21T03:10:13.598Z,9.77
2018-03-21T03:12:47.410Z,8.87
2018-03-21T03:15:22.124Z,7.67
2018-03-21T03:17:56.149Z,7.60
2018-03-21T03:20:30.241Z,6.80
2018-03-21T03:23:04.665Z,12.13
2018-03-21T03:25:38.673Z,8.83
2018-03-21T03:28:13.405Z,12.10
2018-03-21T03:30:47.474Z,11.90
2018-03-21T03:33:21.123Z,9.60
2018-03-21T03:35:55.373Z,12.50
2018-03-21T03:38:29.996Z,9.43
2018-03-21T03:41:03.797Z,13.57
2018-03-21T03:43:37.707Z,12.53
2018-03-21T03:46:11.478Z,6.93
2018-03-21T03:48:46.009Z,10.83
2018-03-21T03:51:20.154Z,8.00
2018-03-21T03:53:59.761Z,10.07
2018-03-21T03:56:34.806Z,9.83
2018-03-21T03:59:08.922Z,17.60
2018-03-21T04:01:42.714Z,23.53
2018-03-21T04:04:16.782Z,9.13
2018-03-21T04:06:51.080Z,8.20
2018-03-21T04:09:24.710Z,9.07
2018-03-21T04:11:58.563Z,6.80
2018-03-21T04:14:32.965Z,9.63
2018-03-21T04:17:07.561Z,12.13
2018-03-21T04:19:41.528Z,7.80
2018-03-21T04:22:16.202Z,9.57
2018-03-21T04:24:50.497Z,10.30
2018-03-21T04:27:24.239Z,11.97
2018-03-21T04:29:58.775Z,7.00
2018-03-21T04:32:33.770Z,9.90
2018-03-21T04:35:07.800Z,10.10
2018-03-21T04:37:41.620Z,12.70
2018-03-21T04:40:15.505Z,16.87
2018-03-21T04:42:49.238Z,12.40
2018-03-21T04:45:23.527Z,12.63
2018-03-21T04:47:57.739Z,15.30
2018-03-21T04:50:32.231Z,10.67
2018-03-21T04:53:06.826Z,7.47
2018-03-21T04:55:42.065Z,10.73
2018-03-21T04:58:16.948Z,14.87
2018-03-21T05:00:51.140Z,13.87
2018-03-21T05:03:25.155Z,11.80
2018-03-21T05:05:59.830Z,15.80
2018-03-21T05:08:34.652Z,17.97
2018-03-21T05:11:08.616Z,17.77
2018-03-21T05:13:42.171Z,7.60
2018-03-21T05:16:16.152Z,9.37
2018-03-21T05:18:50.390Z,12.93
2018-03-21T05:21:25.548Z,12.13
2018-03-21T05:23:59.422Z,12.47
2018-03-21T05:26:33.173Z,14.73
2018-03-21T05:29:07.031Z,11.50
2018-03-21T05:31:40.705Z,11.30
2018-03-21T05:34:14.538Z,11.63
2018-03-21T05:36:48.393Z,11.83
2018-03-21T05:39:22.494Z,7.90
2018-03-21T05:41:56.318Z,12.13
2018-03-21T05:44:30.231Z,14.80
2018-03-21T05:47:04.072Z,8.37
2018-03-21T05:49:38.013Z,15.80
2018-03-21T05:52:11.810Z,12.17
2018-03-21T05:54:45.786Z,12.83
2018-03-21T05:57:19.646Z,12.50
2018-03-21T05:59:53.713Z,10.03
2018-03-21T06:02:27.496Z,7.90
2018-03-21T06:05:02.817Z,11.90
2018-03-21T06:07:37.772Z,10.87
2018-03-21T06:10:11.925Z,10.10
2018-03-21T06:12:46.229Z,11.87
2018-03-21T06:15:20.526Z,11.00
2018-03-21T06:17:54.362Z,14.40
2018-03-21T06:20:28.381Z,12.00
2018-03-21T06:23:02.763Z,8.73
2018-03-21T06:25:36.592Z,14.13
2018-03-21T06:28:10.369Z,8.77
2018-03-21T06:30:44.041Z,19.80
2018-03-21T06:33:17.811Z,8.63
2018-03-21T06:35:51.730Z,7.93
2018-03-21T06:38:25.427Z,13.10
2018-03-21T06:40:59.926Z,11.70
2018-03-21T06:43:34.449Z,8.63
2018-03-21T06:46:08.089Z,7.60
2018-03-21T06:48:41.805Z,9.60
2018-03-21T06:51:16.228Z,6.10
2018-03-21T06:53:50.738Z,8.30
2018-03-21T06:56:24.504Z,9.03
2018-03-21T06:58:58.929Z,7.53
2018-03-21T07:01:33.082Z,11.40
2018-03-21T07:04:06.876Z,6.40
2018-03-21T07:06:41.403Z,9.20
2018-03-21T07:09:15.479Z,8.43
2018-03-21T07:11:49.426Z,5.23
2018-03-21T07:14:35.489Z,8.30
2018-03-21T07:17:11.402Z,8.97
2018-03-21T07:19:45.376Z,10.50
2018-03-21T07:22:19.278Z,10.70
2018-03-21T07:24:54.062Z,9.30
2018-03-21T07:27:27.765Z,9.50
2018-03-21T07:30:02.399Z,7.60
2018-03-21T07:32:36.376Z,9.40
2018-03-21T07:35:10.166Z,7.60
2018-03-21T07:37:44.903Z,8.07
2018-03-21T07:40:19.066Z,13.23
2018-03-21T07:42:52.886Z,9.20
2018-03-21T07:45:27.414Z,10.53
2018-03-21T07:48:02.282Z,11.70
2018-03-21T07:50:36.271Z,14.93
2018-03-21T07:53:10.039Z,16.87
2018-03-21T07:55:43.788Z,30.20
2018-03-21T07:58:18.554Z,25.07
2018-03-21T08:00:53.290Z,7.23
2018-03-21T08:03:27.736Z,14.13
2018-03-21T08:06:01.704Z,11.00
2018-03-21T08:08:35.467Z,17.20
2018-03-21T08:11:09.735Z,13.03
2018-03-21T08:13:43.682Z,19.77
2018-03-21T08:16:18.643Z,8.50
2018-03-21T08:18:52.420Z,16.57
2018-03-21T08:21:26.245Z,11.87
2018-03-21T08:24:00.942Z,9.47
2018-03-21T08:26:35.273Z,13.47
2018-03-21T08:29:09.345Z,10.50
2018-03-21T08:31:43.605Z,10.80
2018-03-21T08:34:18.389Z,10.50
2018-03-21T08:36:52.664Z,7.07
2018-03-21T08:39:26.308Z,14.53
2018-03-21T08:42:01.199Z,16.13
2018-03-21T08:44:35.272Z,17.43
2018-03-21T08:47:09.105Z,11.67
2018-03-21T08:49:42.880Z,9.57
2018-03-21T08:52:16.656Z,16.53
2018-03-21T08:54:50.450Z,8.77
2018-03-21T08:57:24.334Z,11.17
2018-03-21T08:59:58.105Z,11.63
2018-03-21T09:02:32.337Z,8.83
2018-03-21T09:05:07.250Z,10.97
2018-03-21T09:07:41.450Z,13.80
2018-03-21T09:10:16.074Z,16.57
2018-03-21T09:12:50.724Z,10.30
2018-03-21T09:15:24.935Z,14.50
2018-03-21T09:17:59.551Z,10.40
2018-03-21T09:20:33.535Z,19.20
2018-03-21T09:23:08.290Z,11.97
2018-03-21T09:25:42.457Z,8.70
2018-03-21T09:28:16.266Z,20.80
2018-03-21T09:30:50.086Z,12.23
2018-03-21T09:33:24.057Z,16.97
2018-03-21T09:35:58.019Z,6.80
2018-03-21T09:38:32.090Z,10.30
2018-03-21T09:41:06.739Z,14.80
2018-03-21T09:43:41.752Z,7.33
2018-03-21T09:46:15.865Z,10.50
2018-03-21T09:48:50.255Z,7.60
2018-03-21T09:51:24.034Z,18.83
2018-03-21T09:53:59.014Z,8.83
2018-03-21T09:56:33.425Z,9.53
2018-03-21T09:59:07.170Z,8.07
2018-03-21T10:01:41.118Z,5.20
2018-03-21T10:04:14.964Z,7.23
2018-03-21T10:06:49.564Z,9.80
2018-03-21T10:09:23.782Z,16.10
2018-03-21T10:11:57.677Z,12.40
2018-03-21T10:14:31.603Z,9.73
2018-03-21T10:17:05.534Z,7.80
2018-03-21T10:19:39.273Z,7.23
2018-03-21T10:22:13.158Z,12.47
2018-03-21T10:24:47.851Z,4.87
2018-03-21T10:27:21.950Z,10.53
2018-03-21T10:29:56.097Z,8.83
2018-03-21T10:32:30.478Z,10.43
2018-03-21T10:35:04.883Z,15.70
2018-03-21T10:37:39.623Z,11.77
2018-03-21T10:40:13.858Z,9.87
2018-03-21T10:42:47.680Z,5.70
2018-03-21T10:45:21.575Z,5.53
2018-03-21T10:47:55.473Z,10.73
2018-03-21T10:50:29.360Z,7.80
2018-03-21T10:53:03.006Z,6.87
2018-03-21T10:55:37.202Z,9.80
2018-03-21T10:58:11.044Z,8.10
2018-03-21T11:00:45.179Z,7.30
2018-03-21T11:03:19.173Z,5.90
2018-03-21T11:05:53.869Z,10.03
2018-03-21T11:08:28.125Z,5.77
2018-03-21T11:11:02.632Z,9.23
2018-03-21T11:13:36.758Z,12.83
2018-03-21T11:16:11.316Z,6.53
2018-03-21T11:18:45.478Z,7.60
2018-03-21T11:21:19.309Z,6.83
2018-03-21T11:23:53.178Z,11.30
2018-03-21T11:26:27.697Z,10.43
2018-03-21T11:29:02.487Z,14.20
2018-03-21T11:31:36.837Z,23.93
2018-03-21T11:34:10.511Z,7.13
2018-03-21T11:36:45.333Z,5.90
2018-03-21T11:39:19.598Z,11.87
2018-03-21T11:41:53.535Z,5.80
2018-03-21T11:44:27.444Z,7.00
2018-03-21T11:47:01.336Z,10.07
2018-03-21T11:49:35.130Z,3.57
2018-03-21T11:52:09.343Z,5.87
2018-03-21T11:54:45.880Z,13.70
2018-03-21T11:57:20.025Z,10.70
2018-03-21T11:59:54.729Z,13.20
2018-03-21T12:02:28.805Z,7.60
2018-03-21T12:05:02.707Z,5.37
2018-03-21T12:07:37.478Z,7.93
2018-03-21T12:10:11.511Z,6.53
2018-03-21T12:12:45.632Z,4.83
2018-03-21T12:15:19.370Z,6.37
2018-03-21T12:17:53.940Z,8.43
2018-03-21T12:20:28.049Z,4.03
2018-03-21T12:23:02.553Z,9.37
2018-03-21T12:25:36.921Z,8.00
2018-03-21T12:28:11.405Z,3.77
2018-03-21T12:30:45.329Z,6.40
2018-03-21T12:33:19.814Z,7.03
2018-03-21T12:35:53.963Z,7.13
2018-03-21T12:38:27.880Z,6.07
2018-03-21T12:41:01.543Z,9.63
2018-03-21T12:43:35.407Z,10.93
2018-03-21T12:46:09.872Z,8.10
2018-03-21T12:48:43.878Z,6.03
2018-03-21T12:51:17.771Z,11.60
2018-03-21T12:53:51.443Z,12.83
2018-03-21T12:56:26.589Z,10.37
2018-03-21T12:59:01.383Z,10.97
2018-03-21T13:01:36.024Z,14.37
2018-03-21T13:04:10.403Z,10.40
2018-03-21T13:06:45.183Z,11.00
2018-03-21T13:09:19.425Z,15.33
2018-03-21T13:11:53.403Z,12.97
2018-03-21T13:14:27.314Z,11.07
2018-03-21T13:17:01.935Z,16.40
2018-03-21T13:19:35.927Z,12.90
2018-03-21T13:22:10.006Z,21.37
2018-03-21T13:24:45.152Z,10.50
2018-03-21T13:27:19.411Z,12.73
2018-03-21T13:29:53.002Z,10.70
2018-03-21T13:32:27.291Z,13.80
2018-03-21T13:35:01.237Z,11.80
2018-03-21T13:37:35.100Z,9.83
2018-03-21T13:40:09.047Z,10.83
2018-03-21T13:42:42.960Z,14.10
2018-03-21T13:45:16.947Z,11.80
2018-03-21T13:47:51.686Z,28.07
2018-03-21T13:50:26.395Z,11.43
2018-03-21T13:53:00.289Z,13.50
2018-03-21T13:55:34.166Z,14.00
2018-03-21T13:58:07.993Z,11.50
2018-03-21T14:00:41.970Z,17.00
2018-03-21T14:03:16.734Z,11.50
2018-03-21T14:05:50.884Z,11.00
2018-03-21T14:08:24.575Z,11.47
2018-03-21T14:10:58.913Z,16.63
2018-03-21T14:13:32.617Z,17.43
2018-03-21T14:16:06.643Z,16.97
2018-03-21T14:18:40.494Z,18.20
2018-03-21T14:21:14.227Z,15.67
2018-03-21T14:23:48.753Z,21.07
2018-03-21T14:26:22.868Z,17.43
2018-03-21T14:28:56.793Z,14.07
2018-03-21T14:31:31.513Z,25.80
2018-03-21T14:34:05.850Z,15.03
2018-03-21T14:36:40.036Z,15.87
2018-03-21T14:39:13.874Z,17.43
2018-03-21T14:41:47.687Z,17.70
2018-03-21T14:44:21.466Z,14.30
2018-03-21T14:46:55.955Z,17.47
2018-03-21T14:49:30.906Z,15.93
2018-03-21T14:52:05.165Z,20.40
2018-03-21T14:54:39.706Z,17.13
2018-03-21T14:57:13.880Z,12.20
2018-03-21T14:59:47.596Z,12.30
2018-03-21T15:08:18.577Z,14.07
2018-03-21T15:10:52.901Z,15.70
2018-03-21T15:13:27.696Z,20.67
2018-03-21T15:16:01.764Z,12.80
2018-03-21T15:18:35.921Z,18.40
2018-03-21T15:21:09.881Z,15.23
2018-03-21T15:23:44.949Z,13.10
2018-03-21T15:26:19.928Z,20.37
2018-03-21T15:28:53.936Z,13.70
2018-03-21T15:31:27.844Z,12.13
2018-03-21T15:34:01.959Z,11.30
2018-03-21T15:36:35.904Z,9.13
2018-03-21T15:39:10.111Z,14.10
2018-03-21T15:41:44.031Z,11.37
2018-03-21T15:44:18.896Z,8.47
2018-03-21T15:46:53.017Z,13.37
2018-03-21T15:49:28.038Z,9.90
2018-03-21T15:52:02.059Z,11.37
2018-03-21T15:54:35.740Z,19.93
2018-03-21T15:57:09.733Z,13.67
2018-03-21T15:59:43.554Z,12.40
2018-03-21T16:02:17.907Z,15.33
2018-03-21T16:04:52.355Z,12.10
2018-03-21T16:07:26.919Z,12.17
2018-03-21T16:10:01.848Z,17.47
2018-03-21T16:12:35.730Z,13.00
2018-03-21T16:15:09.768Z,17.27
2018-03-21T16:17:43.562Z,11.83
2018-03-21T16:20:17.630Z,17.60
2018-03-21T16:22:52.107Z,19.03
2018-03-21T16:25:26.973Z,12.13
2018-03-21T16:28:01.115Z,13.27
2018-03-21T16:30:35.928Z,19.57
2018-03-21T16:33:11.032Z,13.87
2018-03-21T16:35:45.091Z,12.50
2018-03-21T16:38:19.753Z,14.37
2018-03-21T16:40:54.802Z,17.33
2018-03-21T16:43:28.729Z,19.23
2018-03-21T16:46:02.843Z,14.20
2018-03-21T16:48:36.831Z,18.00
2018-03-21T16:51:11.472Z,18.07
2018-03-21T16:53:45.595Z,15.60
2018-03-21T16:56:19.665Z,11.60
2018-03-21T16:58:54.499Z,18.17
2018-03-21T17:01:29.644Z,16.23
2018-03-21T17:04:03.612Z,14.67
2018-03-21T17:06:37.409Z,16.90
2018-03-21T17:09:12.193Z,11.27
2018-03-21T17:11:47.531Z,13.53
2018-03-21T17:14:21.880Z,12.70
2018-03-21T17:16:55.732Z,20.93
2018-03-21T17:19:30.100Z,17.47
2018-03-21T17:22:04.305Z,15.03
2018-03-21T17:24:39.024Z,10.33
2018-03-21T17:27:13.023Z,16.40
2018-03-21T17:29:46.871Z,18.23
2018-03-21T17:32:20.849Z,15.70
2018-03-21T17:34:55.479Z,18.70
2018-03-21T17:37:29.626Z,18.37
2018-03-21T17:40:03.241Z,13.53
2018-03-21T17:42:37.083Z,21.23
2018-03-21T17:45:10.937Z,11.40
2018-03-21T17:47:44.597Z,13.27
2018-03-21T17:50:19.418Z,14.17
2018-03-21T17:52:54.180Z,13.13
2018-03-21T17:55:28.365Z,17.17
2018-03-21T17:58:02.112Z,15.50
2018-03-21T18:00:36.856Z,13.03
2018-03-21T18:03:11.011Z,17.27
2018-03-21T18:05:44.904Z,15.23
2018-03-21T18:08:18.920Z,12.93
2018-03-21T18:10:53.008Z,19.23
2018-03-21T18:13:26.895Z,15.50
2018-03-21T18:16:00.708Z,21.47
2018-03-21T18:18:35.525Z,23.73
2018-03-21T18:21:10.521Z,17.37
2018-03-21T18:23:45.513Z,19.10
2018-03-21T18:26:20.692Z,19.03
2018-03-21T18:28:55.130Z,17.83
2018-03-21T18:31:29.241Z,16.80
2018-03-21T18:34:03.382Z,16.40
2018-03-21T18:36:37.451Z,18.33
2018-03-21T18:39:11.819Z,19.40
2018-03-21T18:41:46.057Z,16.63
2018-03-21T18:44:21.021Z,14.87
2018-03-21T18:46:55.431Z,15.07
2018-03-21T18:49:29.483Z,20.87
2018-03-21T18:52:03.500Z,15.63
2018-03-21T18:54:37.348Z,17.80
2018-03-21T18:57:11.205Z,16.57
2018-03-21T18:59:44.982Z,12.60
2018-03-21T19:02:19.690Z,11.90
2018-03-21T19:04:53.831Z,15.43
2018-03-21T19:07:27.827Z,19.57
2018-03-21T19:10:02.551Z,14.83
2018-03-21T19:12:36.983Z,17.23
2018-03-21T19:15:12.104Z,13.17
2018-03-21T19:17:46.183Z,16.23
2018-03-21T19:20:20.396Z,16.07
2018-03-21T19:22:55.629Z,17.47
2018-03-21T19:25:29.856Z,14.00
2018-03-21T19:28:04.156Z,11.20
2018-03-21T19:30:38.737Z,13.33
2018-03-21T19:33:12.472Z,14.07
2018-03-21T19:35:47.113Z,13.50
2018-03-21T19:38:20.976Z,12.53
2018-03-21T19:40:55.356Z,13.27
2018-03-21T19:43:29.442Z,15.03
2018-03-21T19:46:03.001Z,12.97
2018-03-21T19:48:36.925Z,11.67
2018-03-21T19:51:11.551Z,17.83
2018-03-21T19:53:45.748Z,12.27
2018-03-21T19:56:19.447Z,12.97
2018-03-21T19:58:54.089Z,22.17
2018-03-21T20:01:28.232Z,15.17
2018-03-21T20:04:02.364Z,16.13
2018-03-21T20:06:36.154Z,16.93
2018-03-21T20:09:10.895Z,15.00
2018-03-21T20:11:45.092Z,19.20
2018-03-21T20:14:19.127Z,14.00
2018-03-21T20:16:53.754Z,15.20
2018-03-21T20:19:27.948Z,13.70
2018-03-21T20:22:02.549Z,13.50
2018-03-21T20:24:36.592Z,14.07
2018-03-21T20:27:10.771Z,16.43
2018-03-21T20:29:45.136Z,12.70
2018-03-21T20:32:20.212Z,9.07
2018-03-21T20:34:54.737Z,16.67
2018-03-21T20:37:29.268Z,14.03
2018-03-21T20:40:03.643Z,19.60
2018-03-21T20:42:38.914Z,11.50
2018-03-21T20:45:13.631Z,10.70
2018-03-21T20:47:48.272Z,19.80
2018-03-21T20:50:22.644Z,20.73
2018-03-21T20:52:57.005Z,18.70
2018-03-21T20:55:31.556Z,16.55
2018-03-21T20:58:05.775Z,16.57
2018-03-21T21:00:39.608Z,13.13
2018-03-21T21:03:13.395Z,16.10
2018-03-21T21:05:47.161Z,23.03
2018-03-21T21:08:20.678Z,15.10
2018-03-21T21:10:54.263Z,16.00
2018-03-21T21:13:28.718Z,15.00
2018-03-21T21:16:02.277Z,20.17
2018-03-21T21:18:36.208Z,21.40
2018-03-21T21:21:09.800Z,27.10
2018-03-21T21:23:44.206Z,15.00
2018-03-21T21:26:18.393Z,21.80
2018-03-21T21:28:52.370Z,21.50
2018-03-21T21:31:26.973Z,29.67
2018-03-21T21:34:00.832Z,23.70
2018-03-21T21:36:34.635Z,26.37
2018-03-21T21:39:08.444Z,26.00
2018-03-21T21:41:42.435Z,26.23
2018-03-21T21:44:16.377Z,26.60
2018-03-21T21:46:50.583Z,31.10
2018-03-21T21:49:25.355Z,35.73
2018-03-21T21:51:59.491Z,27.00
2018-03-21T21:54:33.628Z,34.00
2018-03-21T21:57:08.084Z,25.13
2018-03-21T21:59:42.132Z,39.93
2018-03-21T22:02:16.083Z,41.87
2018-03-21T22:04:50.635Z,38.57
2018-03-21T22:07:24.935Z,38.10
2018-03-21T22:09:58.704Z,44.93
2018-03-21T22:12:33.390Z,39.97
2018-03-21T22:15:07.288Z,33.37
2018-03-21T22:17:41.479Z,41.10
2018-03-21T22:20:15.461Z,36.97
2018-03-21T22:22:50.055Z,47.80
2018-03-21T22:25:24.215Z,50.73
2018-03-21T22:27:57.958Z,42.60
2018-03-21T22:30:32.090Z,45.73
2018-03-21T22:33:05.996Z,42.87
2018-03-21T22:35:39.943Z,43.77
2018-03-21T22:38:13.861Z,46.37
2018-03-21T22:40:48.027Z,58.33
2018-03-21T22:43:22.730Z,47.40
2018-03-21T22:45:56.682Z,40.20
2018-03-21T22:48:31.387Z,62.20
2018-03-21T22:51:06.027Z,45.97
2018-03-21T22:53:40.822Z,54.40
2018-03-21T22:56:15.037Z,47.53
2018-03-21T22:58:48.891Z,45.97
2018-03-21T23:01:22.762Z,52.50
2018-03-21T23:03:57.378Z,47.17
2018-03-21T23:06:31.252Z,55.70
2018-03-21T23:09:06.051Z,59.43
2018-03-21T23:11:39.927Z,55.37
2018-03-21T23:14:14.468Z,50.90
2018-03-21T23:16:49.216Z,49.57
2018-03-21T23:19:24.003Z,47.60
2018-03-21T23:21:57.963Z,55.87
2018-03-21T23:24:31.853Z,58.40
2018-03-21T23:27:06.346Z,52.47
2018-03-21T23:29:40.590Z,55.43
2018-03-21T23:32:14.526Z,47.70
2018-03-21T23:34:48.537Z,50.20
2018-03-21T23:37:23.117Z,49.43
2018-03-21T23:39:57.197Z,59.77
2018-03-21T23:42:31.137Z,58.70
2018-03-21T23:45:05.015Z,50.90
2018-03-21T23:47:38.914Z,53.63
2018-03-21T23:50:13.492Z,46.70
2018-03-21T23:52:48.209Z,45.90
2018-03-21T23:55:22.928Z,56.27
2018-03-21T23:57:57.085Z,48.43
